• Join FlightAware (Why Join?)
  • Login
  • US Flag GB Flag 
21:50 EDT


 

Airport Tracker/Info


-or-


 

Live Flight TrackerFlight Track Log ✈ AVN21 ✈ 14-Mar-2014 ✈ YBBN / BNE - NVVV / VLI

Flight Track Log - Related Links

Times and Time Zones

All times are in EDT time to prevent confusion due to time zone crossing. See the AVN21 flight status page for this flight to view local times or setup timezone preferences in your user account.

Time Position Orientation Groundspeed Altitude Reporting Facility
EDT Latitude Longitude Course Direction KTS MPH feet Rate Location/Type
04:51 -27.3660 153.1393 208° Southwest 3,100  Level Aus ATC (Calculated)
04:52 -27.3692 153.1373 27° Northeast 175 201 600 -6,300 Descending FlightAware ADS-B (EKCH / CPH)
04:52 -27.3616 153.1424 35° Northeast 172 198 1,000 1,500 Climbing FlightAware ADS-B (EKCH / CPH)
04:52 -27.3487 153.1553 43° Northeast 191 220 1,400 1,260 Climbing FlightAware ADS-B (EKCH / CPH)
04:52 -27.3351 153.1695 43° Northeast 207 238 1,900 1,920 Climbing FlightAware ADS-B (EKCH / CPH)
04:53 -27.3221 153.1839 54° Northeast 210 242 2,700 2,160 Climbing FlightAware ADS-B (EKCH / CPH)
04:53 -27.3173 153.1938 67° East 211 243 3,000 2,160 Climbing FlightAware ADS-B (EKCH / CPH)
04:53 -27.3112 153.2154 73° East 217 250 3,800 1,800 Climbing FlightAware ADS-B (EKCH / CPH)
04:54 -27.3049 153.2377 72° East 244 281 4,200 1,020 Climbing FlightAware ADS-B (EKCH / CPH)
04:54 -27.2973 153.2640 72° East 270 311 4,500 840 Climbing FlightAware ADS-B (EKCH / CPH)
04:54 -27.2898 153.2898 72° East 294 338 4,800 1,020 Climbing FlightAware ADS-B (EKCH / CPH)
04:55 -27.2806 153.3214 72° East 314 361 5,200 1,800 Climbing FlightAware ADS-B (EKCH / CPH)
04:55 -27.2713 153.3541 72° East 319 367 6,000 2,220 Climbing FlightAware ADS-B (EKCH / CPH)
04:55 -27.2626 153.3846 72° East 327 376 6,700 2,040 Climbing FlightAware ADS-B (EKCH / CPH)
04:56 -27.2529 153.4186 72° East 334 384 7,400 2,220 Climbing FlightAware ADS-B (EKCH / CPH)
04:56 -27.2433 153.4522 72° East 341 392 8,200 2,400 Climbing FlightAware ADS-B (EKCH / CPH)
04:56 -27.2333 153.4869 72° East 346 398 9,000 2,700 Climbing FlightAware ADS-B (EKCH / CPH)
04:57 -27.2238 153.5200 72° East 348 400 10,000 2,640 Climbing FlightAware ADS-B (EKCH / CPH)
04:57 -27.2125 153.5595 73° East 351 404 10,900 2,640 Climbing FlightAware ADS-B (YTWB)
04:58 -27.1933 153.6259 72° East 364 419 12,600 2,700 Climbing FlightAware ADS-B (EKCH / CPH)
04:58 -27.1824 153.6571 65° Northeast 371 427 13,400 2,400 Climbing FlightAware ADS-B (EKCH / CPH)
04:58 -27.1729 153.6775 61° Northeast 374 430 13,800 2,520 Climbing FlightAware ADS-B (EKCH / CPH)
04:59 -27.1439 153.7275 56° Northeast 382 440 15,200 2,520 Climbing FlightAware ADS-B (EKCH / CPH)
04:59 -27.1137 153.7782 56° Northeast 395 455 16,400 2,400 Climbing FlightAware ADS-B (EKCH / CPH)
04:59 -27.0963 153.8073 56° Northeast 400 460 17,200 2,520 Climbing FlightAware ADS-B (EKCH / CPH)
05:00 -27.0618 153.8652 56° Northeast 408 470 18,500 2,460 Climbing FlightAware ADS-B (EKCH / CPH)
05:00 -27.0325 153.9143 56° Northeast 414 476 19,700 2,400 Climbing FlightAware ADS-B (EKCH / CPH)
05:01 -27.0088 153.9539 56° Northeast 417 480 20,500 2,340 Climbing FlightAware ADS-B (EKCH / CPH)
05:01 -27.0002 153.9683 57° Northeast 415 478 20,800 2,100 Climbing FlightAware ADS-B (YTWB)
05:01 -26.9659 154.0257 56° Northeast 428 493 21,900 2,040 Climbing FlightAware ADS-B (EKCH / CPH)
05:02 -26.9206 154.1014 56° Northeast 435 501 23,300 1,920 Climbing FlightAware ADS-B (EKCH / CPH)
05:03 -26.8874 154.1567 56° Northeast 442 509 24,200 1,680 Climbing FlightAware ADS-B (EKCH / CPH)
05:03 -26.8525 154.2147 56° Northeast 451 519 25,000 1,680 Climbing FlightAware ADS-B (EKCH / CPH)
05:04 -26.8165 154.2747 56° Northeast 458 527 25,900 1,680 Climbing FlightAware ADS-B (EKCH / CPH)
05:04 -26.7812 154.3333 56° Northeast 461 531 26,700 1,680 Climbing FlightAware ADS-B (EKCH / CPH)
05:05 -26.7453 154.3929 56° Northeast 465 535 27,600 1,560 Climbing FlightAware ADS-B (EKCH / CPH)
05:05 -26.7089 154.4532 56° Northeast 471 542 28,300 1,980 Climbing FlightAware ADS-B (EKCH / CPH)
05:06 -26.6727 154.5133 56° Northeast 461 531 29,600 1,800 Climbing FlightAware ADS-B (EKCH / CPH)
05:06 -26.6362 154.5734 56° Northeast 470 541 30,100 1,080 Climbing FlightAware ADS-B (EKCH / CPH)
05:07 -26.5999 154.6331 56° Northeast 475 547 30,700 1,020 Climbing FlightAware ADS-B (EKCH / CPH)
05:07 -26.5520 154.7118 56° Northeast 485 558 31,300 840 Climbing FlightAware ADS-B (EKCH / CPH)
05:08 -26.5130 154.7761 56° Northeast 493 567 31,700 840 Climbing FlightAware ADS-B (EKCH / CPH)
05:08 -26.4604 154.8625 56° Northeast 502 578 32,300 840 Climbing FlightAware ADS-B (EKCH / CPH)
05:09 -26.4207 154.9275 56° Northeast 508 585 32,700 900 Climbing FlightAware ADS-B (EKCH / CPH)
05:10 -26.3707 155.0095 56° Northeast 508 585 33,400 1,020 Climbing FlightAware ADS-B (EKCH / CPH)
05:10 -26.3296 155.0766 56° Northeast 508 585 33,900 1,200 Climbing FlightAware ADS-B (EKCH / CPH)
05:11 -26.2898 155.1417 56° Northeast 501 577 34,600 1,080 Climbing FlightAware ADS-B (EKCH / CPH)
05:11 -26.2506 155.2059 56° Northeast 497 572 35,000 360 Climbing FlightAware ADS-B (EKCH / CPH)
05:12 -26.2107 155.2704 55° Northeast 498 573 35,000  Level FlightAware ADS-B (EKCH / CPH)
05:12 -26.1585 155.3545 56° Northeast 498 573 35,000  Level FlightAware ADS-B (EKCH / CPH)
05:13 -26.1080 155.4363 56° Northeast 499 574 35,000 60 Level FlightAware ADS-B (EKCH / CPH)
05:14 -26.0324 155.5595 56° Northeast 494 568 35,100  Climbing Aus ATC (RADAR)
05:14 -25.9891 155.6288 56° Northeast 503 579 35,000 -120 Descending FlightAware ADS-B (EKCH / CPH)
05:15 -25.9357 155.7151 56° Northeast 505 581 35,000  Level FlightAware ADS-B (EKCH / CPH)
05:16 -25.8905 155.7879 56° Northeast 505 581 35,000 60 Level FlightAware ADS-B (EKCH / CPH)
05:16 -25.8481 155.8577 56° Northeast 497 572 35,100  Climbing Aus ATC (RADAR)
05:17 -25.8659 155.8273 55° Northeast 505 581 35,000  Descending FlightAware ADS-B (EKCH / CPH)
05:17 -25.7740 155.9737 55° Northeast 498 573 35,100  Climbing Aus ATC (RADAR)
05:18 -25.7093 156.0783 55° Northeast 507 583 35,000  Descending FlightAware ADS-B (EKCH / CPH)
05:19 -25.6372 156.2006 55° Northeast 496 571 35,100  Climbing Aus ATC (RADAR)
05:20 -25.5813 156.2988 58° Northeast 494 568 35,000  Descending Aus ATC (RADAR)
05:20 -25.5370 156.3737 57° Northeast 493 567 35,100  Climbing Aus ATC (RADAR)
05:21 -25.5001 156.4390 58° Northeast 492 566 35,000 -120 Descending Aus ATC (RADAR)
05:21 -25.4497 156.5255 57° Northeast 494 568 35,000  Level Aus ATC (RADAR)
05:22 -25.4050 156.6014 57° Northeast 498 573 35,000  Level Aus ATC (RADAR)
05:23 -25.3395 156.7081 56° Northeast 497 572 35,000  Level Aus ATC (RADAR)
05:23 -25.3016 156.7735 57° Northeast 497 572 35,000  Level Aus ATC (RADAR)
05:24 -25.2579 156.8507 58° Northeast 498 573 35,000  Level Aus ATC (RADAR)
05:25 -25.1746 156.9754 54° Northeast 498 573 35,000  Level Aus ATC (RADAR)
05:25 -25.1242 157.0628 58° Northeast 498 573 35,000  Level Aus ATC (RADAR)
05:26 -25.0684 157.1605 58° Northeast 498 573 35,000  Level Aus ATC (RADAR)
05:27 -25.0140 157.2303 49° Northeast 548 631 35,000  Level Aus ATC (RADAR)
05:27 -24.9680 157.3195 60° Northeast 498 573 35,000  Level Aus ATC (RADAR)
05:31 -24.7206 157.7343 236° Southwest 35,000  Level Aus ATC (Calculated)
05:33 -24.8539 157.5146 236° Southwest  Level FlightAware Approximate
05:33 -24.5188 158.0702 236° Southwest 35,000  Level Aus ATC (Calculated)
05:35 -24.6192 157.9054 236° Southwest  Level FlightAware Approximate
05:36 -24.6876 157.7929 236° Southwest  Level FlightAware Approximate
05:37 -24.7559 157.6803 236° Southwest  Level FlightAware Approximate
05:38 -24.8241 157.5675 236° Southwest  Level FlightAware Approximate
05:39 -24.8922 157.4547 236° Southwest  Level FlightAware Approximate
05:40 -24.9603 157.3416 236° Southwest  Level FlightAware Approximate
05:41 -25.0282 157.2285 236° Southwest  Level FlightAware Approximate
05:42 -25.0961 157.1153 236° Southwest  Level FlightAware Approximate
05:43 -25.1638 157.0019 237° Southwest  Level FlightAware Approximate
05:44 -25.2315 156.8884 237° Southwest  Level FlightAware Approximate
05:45 -25.2991 156.7748 237° Southwest  Level FlightAware Approximate
05:45 -23.6034 159.5576 56° Northeast 35,000  Level Aus ATC (Calculated)
05:46 -23.5009 159.7214 236° Southwest 35,000  Level Aus ATC (Calculated)
05:48 -23.6159 159.5383 236° Southwest  Level FlightAware Approximate
05:49 -23.6848 159.4283 236° Southwest  Level FlightAware Approximate
05:50 -23.7536 159.3181 236° Southwest  Level FlightAware Approximate
05:51 -23.8223 159.2078 236° Southwest  Level FlightAware Approximate
05:52 -23.8910 159.0974 236° Southwest  Level FlightAware Approximate
05:53 -23.9596 158.9870 236° Southwest  Level FlightAware Approximate
05:54 -23.8914 159.0977 57° Northeast  Level Estimated
05:55 -23.8234 159.2086 56° Northeast  Level FlightAware Approximate
05:56 -23.7553 159.3194 56° Northeast  Level FlightAware Approximate
05:56 -22.7136 160.9626 235° Southwest 35,000  Level Aus ATC (Calculated)
05:58 -22.8174 160.8016 235° Southwest  Level FlightAware Approximate
05:59 -22.8872 160.6929 235° Southwest  Level FlightAware Approximate
06:00 -22.9569 160.5841 235° Southwest  Level FlightAware Approximate
06:00 -22.4242 161.4115 235° Southwest 35,000  Level Aus ATC (Calculated)
06:01 -22.4944 161.3034 235° Southwest  Level FlightAware Approximate
06:02 -22.5645 161.1952 235° Southwest  Level FlightAware Approximate
06:03 -22.6345 161.0869 235° Southwest  Level FlightAware Approximate
06:04 -22.7045 160.9785 235° Southwest  Level FlightAware Approximate
06:05 -22.7744 160.8699 235° Southwest  Level FlightAware Approximate
06:06 -22.8442 160.7613 235° Southwest  Level FlightAware Approximate
06:07 -22.9140 160.6525 235° Southwest  Level FlightAware Approximate
06:08 -22.9836 160.5437 235° Southwest  Level FlightAware Approximate
06:09 -23.0532 160.4347 235° Southwest  Level FlightAware Approximate
06:10 -23.1228 160.3256 235° Southwest  Level FlightAware Approximate
06:10 -21.6101 162.6545 234° Southwest 35,000  Level Aus ATC (Calculated)
06:11 -21.6810 162.5476 234° Southwest  Level FlightAware Approximate
06:12 -21.7519 162.4405 235° Southwest  Level FlightAware Approximate
06:13 -21.8227 162.3334 235° Southwest  Level FlightAware Approximate
06:14 -21.8934 162.2262 235° Southwest  Level FlightAware Approximate
06:15 -21.9640 162.1189 235° Southwest  Level FlightAware Approximate
06:16 -22.0346 162.0114 235° Southwest  Level FlightAware Approximate
06:17 -22.1051 161.9039 235° Southwest  Level FlightAware Approximate
06:18 -22.1756 161.7962 235° Southwest  Level FlightAware Approximate
06:19 -22.2459 161.6884 235° Southwest  Level FlightAware Approximate
06:20 -22.3162 161.5806 235° Southwest  Level FlightAware Approximate
06:21 -22.3864 161.4726 235° Southwest  Level FlightAware Approximate
06:22 -22.4566 161.3645 235° Southwest  Level FlightAware Approximate
06:23 -22.5267 161.2563 235° Southwest  Level FlightAware Approximate
06:24 -22.5967 161.1480 235° Southwest  Level FlightAware Approximate
06:25 -22.5271 161.2566 56° Northeast  Level Estimated
06:26 -22.4570 161.3648 55° Northeast  Level FlightAware Approximate
06:27 -22.3868 161.4729 55° Northeast  Level FlightAware Approximate
06:28 -22.3166 161.5809 55° Northeast  Level FlightAware Approximate
06:29 -22.2463 161.6887 55° Northeast  Level FlightAware Approximate
06:30 -22.1759 161.7965 55° Northeast  Level FlightAware Approximate
06:31 -22.1055 161.9041 55° Northeast  Level FlightAware Approximate
06:32 -22.0350 162.0117 55° Northeast  Level FlightAware Approximate
06:33 -21.9644 162.1191 55° Northeast  Level FlightAware Approximate
06:34 -21.8937 162.2265 55° Northeast  Level FlightAware Approximate
06:35 -21.8230 162.3337 55° Northeast  Level FlightAware Approximate
06:36 -21.7522 162.4408 55° Northeast  Level FlightAware Approximate
06:37 -21.6814 162.5478 55° Northeast  Level FlightAware Approximate
06:38 -21.6105 162.6548 55° Northeast  Level FlightAware Approximate
06:39 -21.5395 162.7616 54° Northeast  Level FlightAware Approximate
06:40 -21.4684 162.8683 54° Northeast  Level FlightAware Approximate
06:41 -21.3973 162.9749 54° Northeast  Level FlightAware Approximate
06:42 -21.3261 163.0813 54° Northeast  Level FlightAware Approximate
06:43 -21.3973 162.9749 234° Southwest  Level FlightAware Approximate
06:44 -21.3261 163.0813 54° Northeast  Level FlightAware Approximate
06:45 -21.3973 162.9749 234° Southwest  Level FlightAware Approximate
06:46 -21.3261 163.0813 54° Northeast  Level FlightAware Approximate
06:47 -21.3973 162.9749 234° Southwest  Level FlightAware Approximate
06:48 -21.3261 163.0813 54° Northeast  Level FlightAware Approximate
06:49 -21.3973 162.9749 234° Southwest  Level FlightAware Approximate
06:50 -21.3261 163.0813 54° Northeast  Level FlightAware Approximate
06:51 -21.3973 162.9749 234° Southwest  Level FlightAware Approximate
06:52 -21.3261 163.0813 54° Northeast  Level FlightAware Approximate
06:53 -21.3973 162.9749 234° Southwest  Level FlightAware Approximate
06:54 -21.3261 163.0813 54° Northeast  Level FlightAware Approximate
06:55 -21.3973 162.9749 234° Southwest  Level FlightAware Approximate
06:56 -21.3261 163.0813 54° Northeast  Level FlightAware Approximate
06:57 -21.3522 163.0418 54° Northeast  Level FlightAware Approximate
06:58 -21.2802 163.1477 54° Northeast  Level FlightAware Approximate
06:59 -21.2083 163.2535 54° Northeast  Level FlightAware Approximate
07:00 -21.1362 163.3592 54° Northeast  Level FlightAware Approximate
07:01 -21.0641 163.4648 54° Northeast  Level FlightAware Approximate
07:02 -20.9919 163.5703 54° Northeast  Level FlightAware Approximate
07:03 -20.9197 163.6756 54° Northeast  Level FlightAware Approximate
07:04 -20.8474 163.7809 54° Northeast  Level FlightAware Approximate
07:05 -20.7750 163.8861 54° Northeast  Level FlightAware Approximate
07:06 -20.7026 163.9912 54° Northeast  Level FlightAware Approximate
07:07 -20.6301 164.0962 54° Northeast  Level FlightAware Approximate
07:08 -20.5575 164.2011 54° Northeast  Level FlightAware Approximate
07:09 -20.4849 164.3059 54° Northeast  Level FlightAware Approximate
07:10 -20.4122 164.4106 53° Northeast  Level FlightAware Approximate
07:11 -20.3395 164.5152 53° Northeast  Level FlightAware Approximate
07:12 -20.2667 164.6196 53° Northeast  Level FlightAware Approximate
07:13 -20.1938 164.7240 53° Northeast  Level FlightAware Approximate
07:14 -20.1208 164.8283 53° Northeast  Level FlightAware Approximate
07:15 -20.0479 164.9325 53° Northeast  Level FlightAware Approximate
07:16 -19.9748 165.0366 53° Northeast  Level FlightAware Approximate
07:17 -19.9017 165.1406 53° Northeast  Level FlightAware Approximate
07:18 -19.8285 165.2446 53° Northeast  Level FlightAware Approximate
07:19 -19.7553 165.3484 53° Northeast  Level FlightAware Approximate
07:20 -19.6820 165.4521 53° Northeast  Level FlightAware Approximate
07:21 -19.6086 165.5557 53° Northeast  Level FlightAware Approximate
07:22 -19.5352 165.6592 53° Northeast  Level FlightAware Approximate
07:23 -19.4617 165.7627 53° Northeast  Level FlightAware Approximate
07:24 -19.3882 165.8660 53° Northeast  Level FlightAware Approximate
07:25 -19.3146 165.9693 53° Northeast  Level FlightAware Approximate
07:26 -19.2409 166.0724 53° Northeast  Level FlightAware Approximate
07:27 -19.1672 166.1755 53° Northeast  Level FlightAware Approximate
07:28 -19.0935 166.2784 53° Northeast  Level FlightAware Approximate
07:29 -19.0196 166.3813 53° Northeast  Level FlightAware Approximate
07:30 -18.9458 166.4841 53° Northeast  Level FlightAware Approximate
07:31 -18.8718 166.5868 53° Northeast  Level FlightAware Approximate
07:32 -18.7978 166.6894 53° Northeast  Level FlightAware Approximate
07:33 -18.7238 166.7919 53° Northeast  Level FlightAware Approximate
07:34 -18.6497 166.8943 53° Northeast  Level FlightAware Approximate
07:35 -18.5755 166.9967 53° Northeast  Level FlightAware Approximate
07:36 -18.5013 167.0989 53° Northeast  Level FlightAware Approximate
07:37 -18.4270 167.2011 53° Northeast  Level FlightAware Approximate
07:38 -18.3527 167.3031 53° Northeast  Level FlightAware Approximate
07:39 -18.2784 167.4051 52° Northeast  Level FlightAware Approximate
07:40 -18.2039 167.5070 52° Northeast  Level FlightAware Approximate
07:41 -18.1294 167.6088 52° Northeast  Level FlightAware Approximate
07:42 -18.0549 167.7106 52° Northeast  Level FlightAware Approximate
07:43 -17.9803 167.8122 52° Northeast  Level FlightAware Approximate
07:44 -17.9057 167.9137 52° Northeast  Level FlightAware Approximate
07:45 -17.8310 168.0152 52° Northeast  Level FlightAware Approximate